sensor_id;sensor_type;location;lat;lon;timestamp;pressure;altitude;pressure_sealevel;temperature;humidity
76994;BME280;66749;47.406;18.822;2023-04-03T00:00:15;100340.06;;;6.47;63.31
76994;BME280;66749;47.406;18.822;2023-04-03T00:00:46;100343.56;;;6.46;63.59
76994;BME280;66749;47.406;18.822;2023-04-03T00:01:17;100340.97;;;6.46;63.13
76994;BME280;66749;47.406;18.822;2023-04-03T00:01:48;100341.81;;;6.47;63.82
76994;BME280;66749;47.406;18.822;2023-04-03T00:02:19;100338.38;;;6.46;63.22
76994;BME280;66749;47.406;18.822;2023-04-03T00:02:50;100341.88;;;6.45;63.18
76994;BME280;66749;47.406;18.822;2023-04-03T00:03:20;100337.78;;;6.39;63.84
76994;BME280;66749;47.406;18.822;2023-04-03T00:03:51;100340.13;;;6.46;63.05
76994;BME280;66749;47.406;18.822;2023-04-03T00:04:22;100345.50;;;6.41;63.88
76994;BME280;66749;47.406;18.822;2023-04-03T00:04:52;100338.50;;;6.43;63.26
76994;BME280;66749;47.406;18.822;2023-04-03T00:05:23;100341.16;;;6.42;63.34
76994;BME280;66749;47.406;18.822;2023-04-03T00:05:54;100344.78;;;6.37;62.71
76994;BME280;66749;47.406;18.822;2023-04-03T00:06:25;100349.06;;;6.38;62.86
76994;BME280;66749;47.406;18.822;2023-04-03T00:06:56;100335.38;;;6.35;63.36
76994;BME280;66749;47.406;18.822;2023-04-03T00:07:27;100336.94;;;6.39;62.77
76994;BME280;66749;47.406;18.822;2023-04-03T00:07:57;100341.41;;;6.35;62.47
76994;BME280;66749;47.406;18.822;2023-04-03T00:08:28;100349.06;;;6.38;62.98
76994;BME280;66749;47.406;18.822;2023-04-03T00:09:01;100348.28;;;6.36;62.38
76994;BME280;66749;47.406;18.822;2023-04-03T00:09:31;100338.84;;;6.34;62.87
76994;BME280;66749;47.406;18.822;2023-04-03T00:10:02;100344.94;;;6.33;63.05
76994;BME280;66749;47.406;18.822;2023-04-03T00:10:33;100344.88;;;6.34;62.64
76994;BME280;66749;47.406;18.822;2023-04-03T00:11:04;100342.34;;;6.33;62.51
76994;BME280;66749;47.406;18.822;2023-04-03T00:11:35;100348.34;;;6.35;62.25
76994;BME280;66749;47.406;18.822;2023-04-03T00:12:06;100340.50;;;6.36;62.61
76994;BME280;66749;47.406;18.822;2023-04-03T00:12:36;100344.84;;;6.36;62.64
76994;BME280;66749;47.406;18.822;2023-04-03T00:13:08;100344.72;;;6.39;62.97
76994;BME280;66749;47.406;18.822;2023-04-03T00:13:39;100342.13;;;6.39;62.79
76994;BME280;66749;47.406;18.822;2023-04-03T00:14:09;100339.59;;;6.37;63.04
76994;BME280;66749;47.406;18.822;2023-04-03T00:14:40;100352.66;;;6.34;62.90
76994;BME280;66749;47.406;18.822;2023-04-03T00:15:11;100344.03;;;6.34;62.72
76994;BME280;66749;47.406;18.822;2023-04-03T00:15:42;100349.19;;;6.35;62.96
76994;BME280;66749;47.406;18.822;2023-04-03T00:16:13;100345.78;;;6.33;62.78
76994;BME280;66749;47.406;18.822;2023-04-03T00:16:43;100347.78;;;6.27;62.41
76994;BME280;66749;47.406;18.822;2023-04-03T00:17:14;100340.00;;;6.27;62.80
76994;BME280;66749;47.406;18.822;2023-04-03T00:17:44;100346.22;;;6.23;63.03
76994;BME280;66749;47.406;18.822;2023-04-03T00:18:16;100347.00;;;6.25;63.10
76994;BME280;66749;47.406;18.822;2023-04-03T00:18:46;100347.84;;;6.25;62.74
76994;BME280;66749;47.406;18.822;2023-04-03T00:19:17;100337.31;;;6.30;62.26
76994;BME280;66749;47.406;18.822;2023-04-03T00:19:47;100343.47;;;6.27;62.85
76994;BME280;66749;47.406;18.822;2023-04-03T00:20:18;100352.19;;;6.25;61.82
76994;BME280;66749;47.406;18.822;2023-04-03T00:20:49;100352.13;;;6.26;62.44
76994;BME280;66749;47.406;18.822;2023-04-03T00:21:20;100343.63;;;6.23;62.58
76994;BME280;66749;47.406;18.822;2023-04-03T00:21:50;100347.00;;;6.25;62.36
76994;BME280;66749;47.406;18.822;2023-04-03T00:22:21;100354.78;;;6.25;62.07
76994;BME280;66749;47.406;18.822;2023-04-03T00:22:51;100347.78;;;6.27;62.35
76994;BME280;66749;47.406;18.822;2023-04-03T00:23:22;100350.38;;;6.27;61.86
76994;BME280;66749;47.406;18.822;2023-04-03T00:23:53;100353.75;;;6.29;61.78
76994;BME280;66749;47.406;18.822;2023-04-03T00:24:24;100357.19;;;6.29;62.67
76994;BME280;66749;47.406;18.822;2023-04-03T00:24:55;100352.06;;;6.28;62.10
76994;BME280;66749;47.406;18.822;2023-04-03T00:25:25;100350.50;;;6.24;62.77
76994;BME280;66749;47.406;18.822;2023-04-03T00:25:56;100354.91;;;6.22;62.06
76994;BME280;66749;47.406;18.822;2023-04-03T00:26:27;100350.50;;;6.24;62.80
76994;BME280;66749;47.406;18.822;2023-04-03T00:26:57;100347.91;;;6.24;62.32
76994;BME280;66749;47.406;18.822;2023-04-03T00:27:28;100362.59;;;6.23;62.41
76994;BME280;66749;47.406;18.822;2023-04-03T00:27:59;100342.88;;;6.19;62.62
76994;BME280;66749;47.406;18.822;2023-04-03T00:28:29;100342.97;;;6.18;63.14
76994;BME280;66749;47.406;18.822;2023-04-03T00:29:00;100353.31;;;6.18;62.68
76994;BME280;66749;47.406;18.822;2023-04-03T00:29:30;100355.75;;;6.22;63.14
76994;BME280;66749;47.406;18.822;2023-04-03T00:30:01;100344.59;;;6.20;62.18
76994;BME280;66749;47.406;18.822;2023-04-03T00:30:32;100344.69;;;6.17;62.66
76994;BME280;66749;47.406;18.822;2023-04-03T00:31:03;100352.41;;;6.19;62.89
76994;BME280;66749;47.406;18.822;2023-04-03T00:31:34;100343.19;;;6.11;62.73
76994;BME280;66749;47.406;18.822;2023-04-03T00:32:04;100354.38;;;6.12;62.41
76994;BME280;66749;47.406;18.822;2023-04-03T00:32:35;100351.75;;;6.14;62.67
76994;BME280;66749;47.406;18.822;2023-04-03T00:33:05;100353.25;;;6.19;62.89
76994;BME280;66749;47.406;18.822;2023-04-03T00:33:36;100356.59;;;6.23;62.64
76994;BME280;66749;47.406;18.822;2023-04-03T00:34:07;100354.84;;;6.23;62.53
76994;BME280;66749;47.406;18.822;2023-04-03T00:34:37;100354.13;;;6.20;62.76
76994;BME280;66749;47.406;18.822;2023-04-03T00:35:08;100352.38;;;6.20;63.05
76994;BME280;66749;47.406;18.822;2023-04-03T00:35:40;100351.47;;;6.21;62.66
76994;BME280;66749;47.406;18.822;2023-04-03T00:36:12;100358.41;;;6.21;62.43
76994;BME280;66749;47.406;18.822;2023-04-03T00:36:43;100353.31;;;6.18;62.47
76994;BME280;66749;47.406;18.822;2023-04-03T00:37:13;100347.44;;;6.14;62.58
76994;BME280;66749;47.406;18.822;2023-04-03T00:37:44;100356.94;;;6.14;62.13
76994;BME280;66749;47.406;18.822;2023-04-03T00:38:16;100352.69;;;6.13;62.32
76994;BME280;66749;47.406;18.822;2023-04-03T00:38:47;100356.94;;;6.14;62.75
76994;BME280;66749;47.406;18.822;2023-04-03T00:39:17;100360.31;;;6.16;62.00
76994;BME280;66749;47.406;18.822;2023-04-03T00:39:48;100355.91;;;6.18;62.88
76994;BME280;66749;47.406;18.822;2023-04-03T00:40:20;100349.94;;;6.16;62.38
76994;BME280;66749;47.406;18.822;2023-04-03T00:40:51;100354.47;;;6.10;62.25
76994;BME280;66749;47.406;18.822;2023-04-03T00:41:21;100350.31;;;6.06;62.74
76994;BME280;66749;47.406;18.822;2023-04-03T00:41:52;100354.59;;;6.07;62.87
76994;BME280;66749;47.406;18.822;2023-04-03T00:42:23;100355.38;;;6.09;62.91
76994;BME280;66749;47.406;18.822;2023-04-03T00:42:57;100357.28;;;6.04;62.43
76994;BME280;66749;47.406;18.822;2023-04-03T00:43:28;100357.94;;;6.09;62.49
76994;BME280;66749;47.406;18.822;2023-04-03T00:43:59;100349.09;;;6.15;63.05
76994;BME280;66749;47.406;18.822;2023-04-03T00:45:37;100356.28;;;6.08;61.97
76994;BME280;66749;47.406;18.822;2023-04-03T00:46:08;100359.84;;;6.06;61.91
76994;BME280;66749;47.406;18.822;2023-04-03T00:46:38;100351.25;;;6.04;62.22
76994;BME280;66749;47.406;18.822;2023-04-03T00:47:12;100350.53;;;6.00;62.44
76994;BME280;66749;47.406;18.822;2023-04-03T00:47:43;100360.66;;;6.06;62.30
76994;BME280;66749;47.406;18.822;2023-04-03T00:48:21;100347.72;;;6.06;62.72
76994;BME280;66749;47.406;18.822;2023-04-03T00:48:53;100359.03;;;6.04;62.64
76994;BME280;66749;47.406;18.822;2023-04-03T00:49:23;100358.16;;;6.05;62.79
76994;BME280;66749;47.406;18.822;2023-04-03T00:49:54;100352.34;;;5.98;63.30
76994;BME280;66749;47.406;18.822;2023-04-03T00:50:27;100353.41;;;5.93;62.33
76994;BME280;66749;47.406;18.822;2023-04-03T00:50:59;100357.69;;;5.94;63.24
76994;BME280;66749;47.406;18.822;2023-04-03T00:51:29;100354.94;;;5.98;63.29
76994;BME280;66749;47.406;18.822;2023-04-03T00:52:00;100358.47;;;5.96;63.21
76994;BME280;66749;47.406;18.822;2023-04-03T00:52:32;100359.31;;;5.96;63.08
76994;BME280;66749;47.406;18.822;2023-04-03T00:53:05;100356.00;;;5.93;62.43
76994;BME280;66749;47.406;18.822;2023-04-03T00:53:58;100353.13;;;6.00;62.93
76994;BME280;66749;47.406;18.822;2023-04-03T00:54:31;100363.56;;;5.99;62.63
76994;BME280;66749;47.406;18.822;2023-04-03T00:55:04;100359.28;;;5.98;62.29
76994;BME280;66749;47.406;18.822;2023-04-03T00:55:38;100355.03;;;5.95;63.15
76994;BME280;66749;47.406;18.822;2023-04-03T00:56:13;100360.06;;;6.00;62.78
76994;BME280;66749;47.406;18.822;2023-04-03T00:56:44;100355.59;;;6.03;63.33
76994;BME280;66749;47.406;18.822;2023-04-03T00:57:17;100355.84;;;5.97;62.20
76994;BME280;66749;47.406;18.822;2023-04-03T00:57:49;100357.28;;;6.04;62.97
76994;BME280;66749;47.406;18.822;2023-04-03T00:58:24;100360.91;;;6.00;62.30
76994;BME280;66749;47.406;18.822;2023-04-03T00:59:01;100355.72;;;6.00;62.98
76994;BME280;66749;47.406;18.822;2023-04-03T00:59:36;100359.31;;;5.96;62.77
76994;BME280;66749;47.406;18.822;2023-04-03T01:00:13;100364.41;;;5.99;63.11
76994;BME280;66749;47.406;18.822;2023-04-03T01:00:49;100359.94;;;6.03;62.18
76994;BME280;66749;47.406;18.822;2023-04-03T01:01:27;100357.47;;;6.00;62.54
76994;BME280;66749;47.406;18.822;2023-04-03T01:01:59;100359.22;;;5.99;62.99
76994;BME280;66749;47.406;18.822;2023-04-03T01:02:30;100367.06;;;5.98;62.24
76994;BME280;66749;47.406;18.822;2023-04-03T01:03:00;100361.97;;;5.95;62.08
76994;BME280;66749;47.406;18.822;2023-04-03T01:03:31;100360.22;;;5.95;62.00
76994;BME280;66749;47.406;18.822;2023-04-03T01:04:02;100364.41;;;5.99;61.80
76994;BME280;66749;47.406;18.822;2023-04-03T01:04:37;100366.22;;;5.97;62.24
76994;BME280;66749;47.406;18.822;2023-04-03T01:05:09;100366.09;;;6.00;62.13
76994;BME280;66749;47.406;18.822;2023-04-03T01:05:40;100372.03;;;6.02;62.00
76994;BME280;66749;47.406;18.822;2023-04-03T01:06:13;100369.38;;;6.04;62.59
76994;BME280;66749;47.406;18.822;2023-04-03T01:06:44;100356.69;;;5.98;62.22
76994;BME280;66749;47.406;18.822;2023-04-03T01:07:21;100360.91;;;6.00;62.40
76994;BME280;66749;47.406;18.822;2023-04-03T01:07:53;100369.56;;;5.99;63.00
76994;BME280;66749;47.406;18.822;2023-04-03T01:08:23;100362.47;;;6.04;63.09
76994;BME280;66749;47.406;18.822;2023-04-03T01:08:55;100361.50;;;6.07;62.33
76994;BME280;66749;47.406;18.822;2023-04-03T01:09:26;100359.09;;;6.02;62.15
76994;BME280;66749;47.406;18.822;2023-04-03T01:10:01;100359.00;;;6.05;62.49
76994;BME280;66749;47.406;18.822;2023-04-03T01:10:32;100354.94;;;5.98;62.08
76994;BME280;66749;47.406;18.822;2023-04-03T01:11:03;100366.31;;;5.94;62.67
76994;BME280;66749;47.406;18.822;2023-04-03T01:11:33;100359.44;;;5.93;62.14
76994;BME280;66749;47.406;18.822;2023-04-03T01:12:51;100355.78;;;5.99;63.07
76994;BME280;66749;47.406;18.822;2023-04-03T01:13:27;100361.03;;;5.97;62.33
76994;BME280;66749;47.406;18.822;2023-04-03T01:13:59;100365.34;;;5.97;62.14
76994;BME280;66749;47.406;18.822;2023-04-03T01:14:30;100362.94;;;5.92;62.22
76994;BME280;66749;47.406;18.822;2023-04-03T01:15:06;100361.91;;;5.96;62.12
76994;BME280;66749;47.406;18.822;2023-04-03T01:15:38;100357.53;;;5.98;62.86
76994;BME280;66749;47.406;18.822;2023-04-03T01:16:09;100364.19;;;6.04;62.95
76994;BME280;66749;47.406;18.822;2023-04-03T01:16:40;100365.91;;;6.05;62.94
76994;BME280;66749;47.406;18.822;2023-04-03T01:17:35;100361.75;;;6.01;62.50
76994;BME280;66749;47.406;18.822;2023-04-03T01:18:09;100362.81;;;5.95;62.26
76994;BME280;66749;47.406;18.822;2023-04-03T01:18:41;100366.25;;;5.96;62.31
76994;BME280;66749;47.406;18.822;2023-04-03T01:19:15;100361.25;;;5.91;62.44
76994;BME280;66749;47.406;18.822;2023-04-03T01:22:23;100363.91;;;5.88;61.72
76994;BME280;66749;47.406;18.822;2023-04-03T01:23:11;100358.69;;;5.90;62.78
76994;BME280;66749;47.406;18.822;2023-04-03T01:23:53;100369.91;;;5.90;62.47
76994;BME280;66749;47.406;18.822;2023-04-03T01:24:35;100366.50;;;5.88;62.30
76994;BME280;66749;47.406;18.822;2023-04-03T01:25:06;100359.75;;;5.84;61.86
76994;BME280;66749;47.406;18.822;2023-04-03T01:25:48;100362.34;;;5.84;62.78
76994;BME280;66749;47.406;18.822;2023-04-03T01:26:19;100360.59;;;5.84;61.89
76994;BME280;66749;47.406;18.822;2023-04-03T01:26:50;100363.06;;;5.88;62.16
76994;BME280;66749;47.406;18.822;2023-04-03T01:27:21;100362.34;;;5.84;62.40
76994;BME280;66749;47.406;18.822;2023-04-03T01:27:51;100364.72;;;5.90;61.69
76994;BME280;66749;47.406;18.822;2023-04-03T01:28:25;100364.94;;;5.84;62.35
76994;BME280;66749;47.406;18.822;2023-04-03T01:28:59;100358.00;;;5.84;61.89
76994;BME280;66749;47.406;18.822;2023-04-03T01:29:30;100360.41;;;5.89;62.23
76994;BME280;66749;47.406;18.822;2023-04-03T01:30:00;100361.25;;;5.91;62.81
76994;BME280;66749;47.406;18.822;2023-04-03T01:30:35;100359.53;;;5.90;62.71
76994;BME280;66749;47.406;18.822;2023-04-03T01:31:25;100352.78;;;5.86;62.88
76994;BME280;66749;47.406;18.822;2023-04-03T01:31:59;100357.03;;;5.87;62.36
76994;BME280;66749;47.406;18.822;2023-04-03T01:32:30;100360.59;;;5.84;62.81
76994;BME280;66749;47.406;18.822;2023-04-03T01:33:01;100364.72;;;5.90;63.00
76994;BME280;66749;47.406;18.822;2023-04-03T01:33:31;100362.22;;;5.87;62.82
76994;BME280;66749;47.406;18.822;2023-04-03T01:34:02;100358.78;;;5.87;62.57
76994;BME280;66749;47.406;18.822;2023-04-03T01:34:33;100368.19;;;5.89;62.97
76994;BME280;66749;47.406;18.822;2023-04-03T01:35:04;100365.88;;;5.81;61.98
76994;BME280;66749;47.406;18.822;2023-04-03T01:35:34;100368.31;;;5.86;62.46
76994;BME280;66749;47.406;18.822;2023-04-03T01:36:06;100362.22;;;5.87;62.13
76994;BME280;66749;47.406;18.822;2023-04-03T01:36:36;100361.50;;;5.83;62.66
76994;BME280;66749;47.406;18.822;2023-04-03T01:37:07;100366.63;;;5.85;62.25
76994;BME280;66749;47.406;18.822;2023-04-03T01:37:37;100367.41;;;5.87;62.73
76994;BME280;66749;47.406;18.822;2023-04-03T01:38:08;100364.09;;;5.83;62.41
76994;BME280;66749;47.406;18.822;2023-04-03T01:38:39;100360.66;;;5.83;62.97
76994;BME280;66749;47.406;18.822;2023-04-03T01:39:09;100366.75;;;5.82;62.72
76994;BME280;66749;47.406;18.822;2023-04-03T01:39:40;100364.94;;;5.84;62.28
76994;BME280;66749;47.406;18.822;2023-04-03T01:40:11;100370.91;;;5.86;62.09
76994;BME280;66749;47.406;18.822;2023-04-03T01:40:42;100367.47;;;5.85;63.07
76994;BME280;66749;47.406;18.822;2023-04-03T01:41:12;100367.59;;;5.82;63.22
76994;BME280;66749;47.406;18.822;2023-04-03T01:41:43;100367.47;;;5.85;62.59
76994;BME280;66749;47.406;18.822;2023-04-03T01:42:14;100371.66;;;5.88;62.86
76994;BME280;66749;47.406;18.822;2023-04-03T01:42:46;100369.03;;;5.91;62.49
76994;BME280;66749;47.406;18.822;2023-04-03T01:43:16;100374.19;;;5.91;62.64
76994;BME280;66749;47.406;18.822;2023-04-03T01:43:48;100371.63;;;5.91;62.86
76994;BME280;66749;47.406;18.822;2023-04-03T01:44:20;100375.94;;;5.89;62.44
76994;BME280;66749;47.406;18.822;2023-04-03T01:44:50;100367.63;;;5.81;62.71
76994;BME280;66749;47.406;18.822;2023-04-03T01:45:21;100375.16;;;5.87;62.79
76994;BME280;66749;47.406;18.822;2023-04-03T01:45:52;100370.13;;;5.84;61.92
76994;BME280;66749;47.406;18.822;2023-04-03T01:46:25;100369.34;;;5.82;62.26
76994;BME280;66749;47.406;18.822;2023-04-03T01:46:55;100376.19;;;5.83;62.41
76994;BME280;66749;47.406;18.822;2023-04-03T01:47:26;100371.03;;;5.83;62.18
76994;BME280;66749;47.406;18.822;2023-04-03T01:47:56;100379.44;;;5.88;62.21
76994;BME280;66749;47.406;18.822;2023-04-03T01:48:27;100367.75;;;5.78;62.65
76994;BME280;66749;47.406;18.822;2023-04-03T01:48:58;100375.56;;;5.76;63.09
76994;BME280;66749;47.406;18.822;2023-04-03T01:49:28;100369.38;;;5.80;62.73
76994;BME280;66749;47.406;18.822;2023-04-03T01:49:59;100373.69;;;5.80;62.15
76994;BME280;66749;47.406;18.822;2023-04-03T01:50:29;100369.50;;;5.77;62.48
76994;BME280;66749;47.406;18.822;2023-04-03T01:51:00;100372.22;;;5.73;63.11
76994;BME280;66749;47.406;18.822;2023-04-03T01:51:31;100375.66;;;5.73;63.37
76994;BME280;66749;47.406;18.822;2023-04-03T01:52:01;100371.31;;;5.75;62.61
76994;BME280;66749;47.406;18.822;2023-04-03T01:52:32;100374.66;;;5.77;62.94
76994;BME280;66749;47.406;18.822;2023-04-03T01:53:02;100371.25;;;5.77;63.53
76994;BME280;66749;47.406;18.822;2023-04-03T01:53:33;100373.97;;;5.72;62.92
76994;BME280;66749;47.406;18.822;2023-04-03T01:54:04;100377.41;;;5.73;63.07
76994;BME280;66749;47.406;18.822;2023-04-03T01:54:34;100368.75;;;5.74;63.62
76994;BME280;66749;47.406;18.822;2023-04-03T01:55:05;100370.34;;;5.78;62.94
76994;BME280;66749;47.406;18.822;2023-04-03T01:55:36;100362.72;;;5.73;62.94
76994;BME280;66749;47.406;18.822;2023-04-03T01:56:07;100373.25;;;5.69;62.87
76994;BME280;66749;47.406;18.822;2023-04-03T01:56:37;100372.34;;;5.70;63.50
76994;BME280;66749;47.406;18.822;2023-04-03T01:57:09;100375.78;;;5.70;63.58
76994;BME280;66749;47.406;18.822;2023-04-03T01:57:40;100374.81;;;5.73;63.13
76994;BME280;66749;47.406;18.822;2023-04-03T01:58:11;100373.91;;;5.74;63.56
76994;BME280;66749;47.406;18.822;2023-04-03T01:58:41;100372.34;;;5.70;63.04
76994;BME280;66749;47.406;18.822;2023-04-03T01:59:12;100373.19;;;5.70;63.29
76994;BME280;66749;47.406;18.822;2023-04-03T01:59:43;100372.56;;;5.64;63.65
76994;BME280;66749;47.406;18.822;2023-04-03T02:00:14;100368.47;;;5.58;64.01
76994;BME280;66749;47.406;18.822;2023-04-03T02:00:44;100377.75;;;5.64;64.33
76994;BME280;66749;47.406;18.822;2023-04-03T02:01:16;100382.94;;;5.64;64.12
76994;BME280;66749;47.406;18.822;2023-04-03T02:01:47;100377.88;;;5.61;63.65
76994;BME280;66749;47.406;18.822;2023-04-03T02:02:17;100382.94;;;5.64;63.52
76994;BME280;66749;47.406;18.822;2023-04-03T02:02:50;100381.38;;;5.60;63.44
76994;BME280;66749;47.406;18.822;2023-04-03T02:03:21;100371.88;;;5.58;64.32
76994;BME280;66749;47.406;18.822;2023-04-03T02:03:51;100376.19;;;5.60;63.90
76994;BME280;66749;47.406;18.822;2023-04-03T02:04:22;100384.94;;;5.55;64.25
76994;BME280;66749;47.406;18.822;2023-04-03T02:04:53;100378.09;;;5.54;64.00
76994;BME280;66749;47.406;18.822;2023-04-03T02:05:25;100380.78;;;5.51;63.80
76994;BME280;66749;47.406;18.822;2023-04-03T02:05:55;100378.88;;;5.56;63.73
76994;BME280;66749;47.406;18.822;2023-04-03T02:06:26;100385.06;;;5.52;64.05
76994;BME280;66749;47.406;18.822;2023-04-03T02:06:57;100381.47;;;5.56;63.61
76994;BME280;66749;47.406;18.822;2023-04-03T02:07:27;100383.25;;;5.54;64.39
76994;BME280;66749;47.406;18.822;2023-04-03T02:07:58;100382.25;;;5.58;64.48
76994;BME280;66749;47.406;18.822;2023-04-03T02:08:29;100378.09;;;5.54;63.68
76994;BME280;66749;47.406;18.822;2023-04-03T02:08:59;100377.25;;;5.54;64.78
76994;BME280;66749;47.406;18.822;2023-04-03T02:09:30;100381.53;;;5.55;64.81
76994;BME280;66749;47.406;18.822;2023-04-03T02:10:01;100383.25;;;5.54;64.43
76994;BME280;66749;47.406;18.822;2023-04-03T02:10:32;100378.03;;;5.56;64.96
76994;BME280;66749;47.406;18.822;2023-04-03T02:11:02;100379.50;;;5.63;64.33
76994;BME280;66749;47.406;18.822;2023-04-03T02:11:33;100382.94;;;5.64;64.32
76994;BME280;66749;47.406;18.822;2023-04-03T02:12:03;100379.50;;;5.63;64.60
76994;BME280;66749;47.406;18.822;2023-04-03T02:12:34;100379.78;;;5.55;64.77
76994;BME280;66749;47.406;18.822;2023-04-03T02:13:04;100377.13;;;5.57;63.84
76994;BME280;66749;47.406;18.822;2023-04-03T02:13:35;100382.25;;;5.58;63.58
76994;BME280;66749;47.406;18.822;2023-04-03T02:14:06;100381.47;;;5.56;64.11
76994;BME280;66749;47.406;18.822;2023-04-03T02:14:37;100384.84;;;5.58;64.11
76994;BME280;66749;47.406;18.822;2023-04-03T02:15:07;100378.78;;;5.60;63.51
76994;BME280;66749;47.406;18.822;2023-04-03T02:15:39;100377.88;;;5.61;64.42
76994;BME280;66749;47.406;18.822;2023-04-03T02:16:11;100384.09;;;5.55;64.50
76994;BME280;66749;47.406;18.822;2023-04-03T02:16:42;100379.84;;;5.54;63.84
76994;BME280;66749;47.406;18.822;2023-04-03T02:17:13;100381.47;;;5.56;63.94
76994;BME280;66749;47.406;18.822;2023-04-03T02:17:44;100376.63;;;5.47;64.10
76994;BME280;66749;47.406;18.822;2023-04-03T02:18:15;100380.94;;;5.47;64.54
76994;BME280;66749;47.406;18.822;2023-04-03T02:18:45;100381.78;;;5.47;64.61
76994;BME280;66749;47.406;18.822;2023-04-03T02:19:16;100389.41;;;5.52;64.40
76994;BME280;66749;47.406;18.822;2023-04-03T02:19:46;100377.41;;;5.49;64.77
76994;BME280;66749;47.406;18.822;2023-04-03T02:20:17;100386.84;;;5.50;64.17
76994;BME280;66749;47.406;18.822;2023-04-03T02:20:48;100381.66;;;5.50;64.16
76994;BME280;66749;47.406;18.822;2023-04-03T02:21:18;100386.75;;;5.53;64.77
76994;BME280;66749;47.406;18.822;2023-04-03T02:21:49;100382.50;;;5.51;64.32
76994;BME280;66749;47.406;18.822;2023-04-03T02:22:19;100389.34;;;5.53;64.96
76994;BME280;66749;47.406;18.822;2023-04-03T02:22:50;100382.31;;;5.57;64.56
76994;BME280;66749;47.406;18.822;2023-04-03T02:23:21;100385.72;;;5.57;64.79
76994;BME280;66749;47.406;18.822;2023-04-03T02:23:51;100383.31;;;5.53;64.98
76994;BME280;66749;47.406;18.822;2023-04-03T02:24:22;100385.84;;;5.54;64.62
76994;BME280;66749;47.406;18.822;2023-04-03T02:24:52;100391.13;;;5.51;65.19
76994;BME280;66749;47.406;18.822;2023-04-03T02:25:23;100380.63;;;5.56;65.09
76994;BME280;66749;47.406;18.822;2023-04-03T02:26:11;100385.78;;;5.56;64.70
76994;BME280;66749;47.406;18.822;2023-04-03T02:26:42;100381.66;;;5.52;64.53
76994;BME280;66749;47.406;18.822;2023-04-03T02:27:13;100385.91;;;5.53;65.13
76994;BME280;66749;47.406;18.822;2023-04-03T02:27:43;100386.81;;;5.52;64.77
76994;BME280;66749;47.406;18.822;2023-04-03T02:28:14;100389.44;;;5.50;65.12
76994;BME280;66749;47.406;18.822;2023-04-03T02:28:45;100389.34;;;5.53;64.86
76994;BME280;66749;47.406;18.822;2023-04-03T02:29:16;100380.63;;;5.56;64.86
76994;BME280;66749;47.406;18.822;2023-04-03T02:29:46;100390.25;;;5.52;65.32
76994;BME280;66749;47.406;18.822;2023-04-03T02:30:17;100380.06;;;5.48;65.54
76994;BME280;66749;47.406;18.822;2023-04-03T02:30:47;100383.47;;;5.48;65.40
76994;BME280;66749;47.406;18.822;2023-04-03T02:31:18;100389.44;;;5.50;64.77
76994;BME280;66749;47.406;18.822;2023-04-03T02:31:49;100385.22;;;5.48;65.55
76994;BME280;66749;47.406;18.822;2023-04-03T02:32:20;100380.00;;;5.49;65.46
76994;BME280;66749;47.406;18.822;2023-04-03T02:32:51;100386.84;;;5.50;65.45
76994;BME280;66749;47.406;18.822;2023-04-03T02:33:22;100383.47;;;5.48;65.70
76994;BME280;66749;47.406;18.822;2023-04-03T02:33:52;100381.84;;;5.46;65.63
76994;BME280;66749;47.406;18.822;2023-04-03T02:34:23;100376.75;;;5.44;65.70
76994;BME280;66749;47.406;18.822;2023-04-03T02:34:53;100387.69;;;5.51;65.25
76994;BME280;66749;47.406;18.822;2023-04-03T02:35:24;100385.16;;;5.49;65.71
76994;BME280;66749;47.406;18.822;2023-04-03T02:35:55;100380.00;;;5.49;65.15
76994;BME280;66749;47.406;18.822;2023-04-03T02:36:26;100383.53;;;5.47;65.42
76994;BME280;66749;47.406;18.822;2023-04-03T02:36:57;100388.88;;;5.42;64.84
76994;BME280;66749;47.406;18.822;2023-04-03T02:37:27;100386.47;;;5.38;64.98
76994;BME280;66749;47.406;18.822;2023-04-03T02:37:58;100382.13;;;5.38;65.58
76994;BME280;66749;47.406;18.822;2023-04-03T02:38:28;100383.88;;;5.38;64.78
76994;BME280;66749;47.406;18.822;2023-04-03T02:38:59;100386.53;;;5.35;65.51
76994;BME280;66749;47.406;18.822;2023-04-03T02:39:30;100381.50;;;5.32;65.20
76994;BME280;66749;47.406;18.822;2023-04-03T02:40:01;100388.41;;;5.31;65.79
76994;BME280;66749;47.406;18.822;2023-04-03T02:40:31;100381.56;;;5.28;65.90
76994;BME280;66749;47.406;18.822;2023-04-03T02:41:05;100388.41;;;5.31;66.08
76994;BME280;66749;47.406;18.822;2023-04-03T02:41:36;100391.72;;;5.35;66.22
76994;BME280;66749;47.406;18.822;2023-04-03T02:42:07;100388.22;;;5.36;65.32
76994;BME280;66749;47.406;18.822;2023-04-03T02:42:38;100378.84;;;5.33;65.17
76994;BME280;66749;47.406;18.822;2023-04-03T02:43:08;100384.13;;;5.30;66.19
76994;BME280;66749;47.406;18.822;2023-04-03T02:43:39;100388.47;;;5.29;65.98
76994;BME280;66749;47.406;18.822;2023-04-03T02:44:11;100380.00;;;5.24;65.60
76994;BME280;66749;47.406;18.822;2023-04-03T02:44:41;100391.06;;;5.28;66.33
76994;BME280;66749;47.406;18.822;2023-04-03T02:45:12;100393.00;;;5.23;65.57
76994;BME280;66749;47.406;18.822;2023-04-03T02:45:43;100389.50;;;5.24;65.95
76994;BME280;66749;47.406;18.822;2023-04-03T02:46:13;100387.91;;;5.20;66.08
76994;BME280;66749;47.406;18.822;2023-04-03T02:46:45;100396.50;;;5.22;65.54
76994;BME280;66749;47.406;18.822;2023-04-03T02:47:16;100398.06;;;5.26;65.96
76994;BME280;66749;47.406;18.822;2023-04-03T02:47:47;100399.03;;;5.23;66.73
76994;BME280;66749;47.406;18.822;2023-04-03T02:48:17;100396.50;;;5.22;66.43
76994;BME280;66749;47.406;18.822;2023-04-03T02:48:48;100392.03;;;5.25;65.64
76994;BME280;66749;47.406;18.822;2023-04-03T02:49:18;100389.31;;;5.30;65.73
76994;BME280;66749;47.406;18.822;2023-04-03T02:49:49;100387.66;;;5.27;65.72